Saturday, July 21, 2018, 7:17 AM GMT
Back to Local

CWQV, Puinte Claveau

Location: , , Canada Lat: 48.267
Local Time: 7:17 AM GMT ( 7:17 GMT) Lon: -70.117
Time Zone: GMT Elev: 0 ft

Show me the last for .
Show Coded

Time T Td Feel RH Dir Speed Gust Alt SLP Vis Weather Sky Remarks
2018-07-21 07:00 65 - - 0 160° 1 - - - 0 None
2018-07-21 06:00 65 - - 0 130° 1 - - - 0 None
2018-07-21 05:00 67 - - 0 50° 2 - - - 0 None
2018-07-21 04:00 68 - - 0 190° 1 - - - 0 None
2018-07-21 03:00 67 - - 0 90° 3 - - - 0 None
2018-07-21 02:00 74 - - 0 300° 2 - - - 0 None
2018-07-21 01:00 77 - - 0 60° 2 - - - 0 None
2018-07-21 00:00 85 - - 0 60° 5 - - - 0 None
2018-07-20 23:00 88 - - 0 60° 9 - - - 0 None
2018-07-20 22:00 89 - - 0 80° 13 - - - 0 None
2018-07-20 21:00 81 - - 0 100° 9 - - - 0 None
2018-07-20 20:00 86 - - 0 250° 2 - - - 0 None
2018-07-20 19:00 81 - - 0 160° 1 - - - 0 None
2018-07-20 18:00 77 - - 0 110° 3 - - - 0 None
2018-07-20 17:00 76 - - 0 120° 2 - - - 0 None
2018-07-20 16:00 70 - - 0 120° 5 - - - 0 None
2018-07-20 15:00 70 - - 0 240° 2 - - - 0 None
2018-07-20 14:00 67 - - 0 240° 2 - - - 0 None
2018-07-20 13:00 64 - - 0 250° 1 - - - 0 None
2018-07-20 12:00 63 - - 0 150° 1 - - - 0 None
2018-07-20 11:00 60 - - 0 90° 1 - - - 0 None
2018-07-20 10:00 60 - - 0 - Calm - - - 0 None
2018-07-20 09:00 59 - - 0 360° 1 - - - 0 None
2018-07-20 08:00 60 - - 0 70° 3 - - - 0 None

Support USWX by starting your Amazon purchase here.